sensor_id;sensor_type;location;lat;lon;timestamp;P1;durP1;ratioP1;P2;durP2;ratioP2
47519;SDS011;33252;48.122;11.538;2023-04-24T00:01:47;1.58;;;0.45;;
47519;SDS011;33252;48.122;11.538;2023-04-24T00:04:13;1.15;;;0.40;;
47519;SDS011;33252;48.122;11.538;2023-04-24T00:06:41;1.27;;;0.45;;
47519;SDS011;33252;48.122;11.538;2023-04-24T00:09:08;0.88;;;0.45;;
47519;SDS011;33252;48.122;11.538;2023-04-24T00:11:35;1.88;;;0.30;;
47519;SDS011;33252;48.122;11.538;2023-04-24T00:14:01;1.20;;;0.40;;
47519;SDS011;33252;48.122;11.538;2023-04-24T00:16:27;3.05;;;0.45;;
47519;SDS011;33252;48.122;11.538;2023-04-24T00:18:53;0.65;;;0.35;;
47519;SDS011;33252;48.122;11.538;2023-04-24T00:21:19;2.10;;;0.40;;
47519;SDS011;33252;48.122;11.538;2023-04-24T00:23:45;1.30;;;0.40;;
47519;SDS011;33252;48.122;11.538;2023-04-24T00:26:11;0.85;;;0.40;;
47519;SDS011;33252;48.122;11.538;2023-04-24T00:28:36;1.52;;;0.70;;
47519;SDS011;33252;48.122;11.538;2023-04-24T00:31:02;1.25;;;0.43;;
47519;SDS011;33252;48.122;11.538;2023-04-24T00:33:28;0.75;;;0.68;;
47519;SDS011;33252;48.122;11.538;2023-04-24T00:35:53;0.57;;;0.22;;
47519;SDS011;33252;48.122;11.538;2023-04-24T00:38:19;1.35;;;0.40;;
47519;SDS011;33252;48.122;11.538;2023-04-24T00:40:45;0.70;;;0.40;;
47519;SDS011;33252;48.122;11.538;2023-04-24T00:43:12;0.47;;;0.32;;
47519;SDS011;33252;48.122;11.538;2023-04-24T00:45:38;0.95;;;0.52;;
47519;SDS011;33252;48.122;11.538;2023-04-24T00:48:03;0.30;;;0.20;;
47519;SDS011;33252;48.122;11.538;2023-04-24T00:50:30;1.48;;;0.32;;
47519;SDS011;33252;48.122;11.538;2023-04-24T00:52:56;0.93;;;0.28;;
47519;SDS011;33252;48.122;11.538;2023-04-24T00:55:22;0.47;;;0.35;;
47519;SDS011;33252;48.122;11.538;2023-04-24T00:57:47;0.47;;;0.20;;
47519;SDS011;33252;48.122;11.538;2023-04-24T01:00:14;0.75;;;0.20;;
47519;SDS011;33252;48.122;11.538;2023-04-24T01:02:41;0.47;;;0.30;;
47519;SDS011;33252;48.122;11.538;2023-04-24T01:05:10;0.47;;;0.20;;
47519;SDS011;33252;48.122;11.538;2023-04-24T01:07:43;0.35;;;0.30;;
47519;SDS011;33252;48.122;11.538;2023-04-24T01:10:12;0.80;;;0.30;;
47519;SDS011;33252;48.122;11.538;2023-04-24T01:12:39;0.40;;;0.28;;
47519;SDS011;33252;48.122;11.538;2023-04-24T01:15:05;0.68;;;0.10;;
47519;SDS011;33252;48.122;11.538;2023-04-24T01:17:32;0.20;;;0.10;;
47519;SDS011;33252;48.122;11.538;2023-04-24T01:19:58;0.57;;;0.20;;
47519;SDS011;33252;48.122;11.538;2023-04-24T01:22:25;0.30;;;0.10;;
47519;SDS011;33252;48.122;11.538;2023-04-24T01:24:51;0.60;;;0.20;;
47519;SDS011;33252;48.122;11.538;2023-04-24T01:27:18;0.40;;;0.10;;
47519;SDS011;33252;48.122;11.538;2023-04-24T01:29:44;0.30;;;0.15;;
47519;SDS011;33252;48.122;11.538;2023-04-24T01:32:10;0.45;;;0.20;;
47519;SDS011;33252;48.122;11.538;2023-04-24T01:34:36;0.73;;;0.20;;
47519;SDS011;33252;48.122;11.538;2023-04-24T01:37:03;0.20;;;0.17;;
47519;SDS011;33252;48.122;11.538;2023-04-24T01:39:30;1.35;;;0.20;;
47519;SDS011;33252;48.122;11.538;2023-04-24T01:41:56;0.20;;;0.20;;
47519;SDS011;33252;48.122;11.538;2023-04-24T01:44:22;0.70;;;0.40;;
47519;SDS011;33252;48.122;11.538;2023-04-24T01:46:48;0.60;;;0.10;;
47519;SDS011;33252;48.122;11.538;2023-04-24T01:49:13;1.55;;;0.20;;
47519;SDS011;33252;48.122;11.538;2023-04-24T01:51:39;0.13;;;0.13;;
47519;SDS011;33252;48.122;11.538;2023-04-24T01:54:05;1.60;;;0.20;;
47519;SDS011;33252;48.122;11.538;2023-04-24T01:56:31;1.00;;;0.25;;
47519;SDS011;33252;48.122;11.538;2023-04-24T01:59:00;0.57;;;0.30;;
47519;SDS011;33252;48.122;11.538;2023-04-24T02:01:32;0.52;;;0.30;;
47519;SDS011;33252;48.122;11.538;2023-04-24T02:04:01;2.55;;;0.38;;
47519;SDS011;33252;48.122;11.538;2023-04-24T02:06:26;0.60;;;0.20;;
47519;SDS011;33252;48.122;11.538;2023-04-24T02:08:52;2.63;;;0.17;;
47519;SDS011;33252;48.122;11.538;2023-04-24T02:11:18;0.55;;;0.25;;
47519;SDS011;33252;48.122;11.538;2023-04-24T02:13:44;0.30;;;0.20;;
47519;SDS011;33252;48.122;11.538;2023-04-24T02:16:09;0.40;;;0.20;;
47519;SDS011;33252;48.122;11.538;2023-04-24T02:18:35;0.32;;;0.10;;
47519;SDS011;33252;48.122;11.538;2023-04-24T02:21:01;1.65;;;0.40;;
47519;SDS011;33252;48.122;11.538;2023-04-24T02:23:27;0.30;;;0.10;;
47519;SDS011;33252;48.122;11.538;2023-04-24T02:25:53;0.40;;;0.10;;
47519;SDS011;33252;48.122;11.538;2023-04-24T02:28:19;1.17;;;0.20;;
47519;SDS011;33252;48.122;11.538;2023-04-24T02:30:45;1.13;;;0.10;;
47519;SDS011;33252;48.122;11.538;2023-04-24T02:33:11;0.98;;;0.20;;
47519;SDS011;33252;48.122;11.538;2023-04-24T02:35:37;0.40;;;0.10;;
47519;SDS011;33252;48.122;11.538;2023-04-24T02:38:03;1.35;;;0.20;;
47519;SDS011;33252;48.122;11.538;2023-04-24T02:40:29;0.45;;;0.10;;
47519;SDS011;33252;48.122;11.538;2023-04-24T02:42:55;2.47;;;0.20;;
47519;SDS011;33252;48.122;11.538;2023-04-24T02:45:20;0.75;;;0.20;;
47519;SDS011;33252;48.122;11.538;2023-04-24T02:47:46;0.28;;;0.10;;
47519;SDS011;33252;48.122;11.538;2023-04-24T02:50:12;1.15;;;0.17;;
47519;SDS011;33252;48.122;11.538;2023-04-24T02:52:37;0.60;;;0.60;;
47519;SDS011;33252;48.122;11.538;2023-04-24T02:55:03;0.15;;;0.10;;
47519;SDS011;33252;48.122;11.538;2023-04-24T02:57:29;1.02;;;0.20;;
47519;SDS011;33252;48.122;11.538;2023-04-24T02:59:55;1.35;;;0.10;;
47519;SDS011;33252;48.122;11.538;2023-04-24T03:02:20;0.90;;;0.22;;
47519;SDS011;33252;48.122;11.538;2023-04-24T03:04:46;0.95;;;0.25;;
47519;SDS011;33252;48.122;11.538;2023-04-24T03:07:13;0.50;;;0.20;;
47519;SDS011;33252;48.122;11.538;2023-04-24T03:09:39;0.25;;;0.20;;
47519;SDS011;33252;48.122;11.538;2023-04-24T03:12:05;0.85;;;0.20;;
47519;SDS011;33252;48.122;11.538;2023-04-24T03:14:31;0.30;;;0.20;;
47519;SDS011;33252;48.122;11.538;2023-04-24T03:16:57;2.70;;;0.40;;
47519;SDS011;33252;48.122;11.538;2023-04-24T03:19:23;0.28;;;0.10;;
47519;SDS011;33252;48.122;11.538;2023-04-24T03:21:49;0.17;;;0.10;;
47519;SDS011;33252;48.122;11.538;2023-04-24T03:24:14;1.48;;;0.20;;
47519;SDS011;33252;48.122;11.538;2023-04-24T03:26:40;1.55;;;0.20;;
47519;SDS011;33252;48.122;11.538;2023-04-24T03:29:06;0.60;;;0.10;;
47519;SDS011;33252;48.122;11.538;2023-04-24T03:31:32;0.65;;;0.20;;
47519;SDS011;33252;48.122;11.538;2023-04-24T03:33:57;0.50;;;0.22;;
47519;SDS011;33252;48.122;11.538;2023-04-24T03:36:23;0.63;;;0.30;;
47519;SDS011;33252;48.122;11.538;2023-04-24T03:38:49;0.20;;;0.20;;
47519;SDS011;33252;48.122;11.538;2023-04-24T03:41:15;0.35;;;0.20;;
47519;SDS011;33252;48.122;11.538;2023-04-24T03:43:40;0.38;;;0.30;;
47519;SDS011;33252;48.122;11.538;2023-04-24T03:46:06;0.65;;;0.40;;
47519;SDS011;33252;48.122;11.538;2023-04-24T03:48:34;0.73;;;0.25;;
47519;SDS011;33252;48.122;11.538;2023-04-24T03:51:00;0.68;;;0.30;;
47519;SDS011;33252;48.122;11.538;2023-04-24T03:53:26;0.55;;;0.20;;
47519;SDS011;33252;48.122;11.538;2023-04-24T03:55:52;1.42;;;0.30;;
47519;SDS011;33252;48.122;11.538;2023-04-24T03:58:18;1.67;;;0.28;;
47519;SDS011;33252;48.122;11.538;2023-04-24T04:00:44;0.85;;;0.30;;
47519;SDS011;33252;48.122;11.538;2023-04-24T04:03:11;3.08;;;0.40;;
47519;SDS011;33252;48.122;11.538;2023-04-24T04:05:38;0.52;;;0.20;;
47519;SDS011;33252;48.122;11.538;2023-04-24T04:08:04;2.40;;;0.30;;
47519;SDS011;33252;48.122;11.538;2023-04-24T04:10:30;0.65;;;0.30;;
47519;SDS011;33252;48.122;11.538;2023-04-24T04:12:55;0.60;;;0.40;;
47519;SDS011;33252;48.122;11.538;2023-04-24T04:15:21;1.60;;;0.30;;
47519;SDS011;33252;48.122;11.538;2023-04-24T04:17:47;1.70;;;0.30;;
47519;SDS011;33252;48.122;11.538;2023-04-24T04:20:12;2.60;;;0.52;;
47519;SDS011;33252;48.122;11.538;2023-04-24T04:22:38;0.57;;;0.20;;
47519;SDS011;33252;48.122;11.538;2023-04-24T04:25:04;0.20;;;0.20;;
47519;SDS011;33252;48.122;11.538;2023-04-24T04:27:30;3.08;;;0.38;;
47519;SDS011;33252;48.122;11.538;2023-04-24T04:29:59;1.52;;;0.30;;
47519;SDS011;33252;48.122;11.538;2023-04-24T04:32:29;0.93;;;0.35;;
47519;SDS011;33252;48.122;11.538;2023-04-24T04:34:58;0.40;;;0.28;;
47519;SDS011;33252;48.122;11.538;2023-04-24T04:37:28;0.40;;;0.20;;
47519;SDS011;33252;48.122;11.538;2023-04-24T04:39:58;1.75;;;0.30;;
47519;SDS011;33252;48.122;11.538;2023-04-24T04:42:24;0.38;;;0.32;;
47519;SDS011;33252;48.122;11.538;2023-04-24T04:44:51;0.52;;;0.20;;
47519;SDS011;33252;48.122;11.538;2023-04-24T04:47:17;0.57;;;0.22;;
47519;SDS011;33252;48.122;11.538;2023-04-24T04:49:46;1.23;;;0.30;;
47519;SDS011;33252;48.122;11.538;2023-04-24T04:52:13;0.20;;;0.20;;
47519;SDS011;33252;48.122;11.538;2023-04-24T04:54:38;2.33;;;0.40;;
47519;SDS011;33252;48.122;11.538;2023-04-24T04:57:04;0.85;;;0.30;;
47519;SDS011;33252;48.122;11.538;2023-04-24T04:59:30;0.95;;;0.30;;
47519;SDS011;33252;48.122;11.538;2023-04-24T05:01:56;0.75;;;0.20;;
47519;SDS011;33252;48.122;11.538;2023-04-24T05:04:21;2.55;;;0.30;;
47519;SDS011;33252;48.122;11.538;2023-04-24T05:06:47;1.08;;;0.35;;
47519;SDS011;33252;48.122;11.538;2023-04-24T05:09:13;0.90;;;0.30;;
47519;SDS011;33252;48.122;11.538;2023-04-24T05:11:38;0.13;;;0.10;;
47519;SDS011;33252;48.122;11.538;2023-04-24T05:14:04;0.93;;;0.50;;
47519;SDS011;33252;48.122;11.538;2023-04-24T05:16:30;0.95;;;0.30;;
47519;SDS011;33252;48.122;11.538;2023-04-24T05:18:56;0.57;;;0.20;;
47519;SDS011;33252;48.122;11.538;2023-04-24T05:21:21;0.55;;;0.22;;
47519;SDS011;33252;48.122;11.538;2023-04-24T05:23:47;0.75;;;0.10;;
47519;SDS011;33252;48.122;11.538;2023-04-24T05:26:13;1.25;;;0.22;;
47519;SDS011;33252;48.122;11.538;2023-04-24T05:28:40;1.10;;;0.30;;
47519;SDS011;33252;48.122;11.538;2023-04-24T05:31:06;2.42;;;0.40;;
47519;SDS011;33252;48.122;11.538;2023-04-24T05:33:31;0.88;;;0.20;;
47519;SDS011;33252;48.122;11.538;2023-04-24T05:35:57;0.13;;;0.10;;
47519;SDS011;33252;48.122;11.538;2023-04-24T05:38:23;0.45;;;0.30;;
47519;SDS011;33252;48.122;11.538;2023-04-24T05:40:48;0.65;;;0.20;;
47519;SDS011;33252;48.122;11.538;2023-04-24T05:43:14;0.77;;;0.13;;
47519;SDS011;33252;48.122;11.538;2023-04-24T05:45:40;0.63;;;0.50;;
47519;SDS011;33252;48.122;11.538;2023-04-24T05:48:05;0.93;;;0.10;;
47519;SDS011;33252;48.122;11.538;2023-04-24T05:50:31;0.25;;;0.20;;
47519;SDS011;33252;48.122;11.538;2023-04-24T05:52:57;1.33;;;0.20;;
47519;SDS011;33252;48.122;11.538;2023-04-24T05:55:27;0.75;;;0.22;;
47519;SDS011;33252;48.122;11.538;2023-04-24T05:57:52;0.10;;;0.10;;
47519;SDS011;33252;48.122;11.538;2023-04-24T06:00:18;0.22;;;0.10;;
47519;SDS011;33252;48.122;11.538;2023-04-24T06:02:45;0.20;;;0.10;;
47519;SDS011;33252;48.122;11.538;2023-04-24T06:05:12;1.45;;;0.45;;
47519;SDS011;33252;48.122;11.538;2023-04-24T06:07:37;1.23;;;0.10;;
47519;SDS011;33252;48.122;11.538;2023-04-24T06:10:03;0.50;;;0.10;;
47519;SDS011;33252;48.122;11.538;2023-04-24T06:12:29;0.52;;;0.20;;
47519;SDS011;33252;48.122;11.538;2023-04-24T06:14:56;0.50;;;0.20;;
47519;SDS011;33252;48.122;11.538;2023-04-24T06:17:21;0.25;;;0.10;;
47519;SDS011;33252;48.122;11.538;2023-04-24T06:19:47;1.45;;;0.10;;
47519;SDS011;33252;48.122;11.538;2023-04-24T06:22:13;0.77;;;0.10;;
47519;SDS011;33252;48.122;11.538;2023-04-24T06:24:39;0.30;;;0.10;;
47519;SDS011;33252;48.122;11.538;2023-04-24T06:27:05;0.47;;;0.10;;
47519;SDS011;33252;48.122;11.538;2023-04-24T06:29:32;0.40;;;0.15;;
47519;SDS011;33252;48.122;11.538;2023-04-24T06:31:58;4.95;;;0.68;;
47519;SDS011;33252;48.122;11.538;2023-04-24T06:34:24;3.92;;;0.30;;
47519;SDS011;33252;48.122;11.538;2023-04-24T06:36:50;0.43;;;0.10;;
47519;SDS011;33252;48.122;11.538;2023-04-24T06:39:16;1.08;;;0.20;;
47519;SDS011;33252;48.122;11.538;2023-04-24T06:41:41;0.17;;;0.17;;
47519;SDS011;33252;48.122;11.538;2023-04-24T06:44:07;0.20;;;0.10;;
47519;SDS011;33252;48.122;11.538;2023-04-24T06:46:33;0.45;;;0.15;;
47519;SDS011;33252;48.122;11.538;2023-04-24T06:48:59;1.30;;;0.15;;
47519;SDS011;33252;48.122;11.538;2023-04-24T06:51:26;0.43;;;0.10;;
47519;SDS011;33252;48.122;11.538;2023-04-24T06:53:55;0.30;;;0.10;;
47519;SDS011;33252;48.122;11.538;2023-04-24T06:56:23;0.40;;;0.10;;
47519;SDS011;33252;48.122;11.538;2023-04-24T06:58:50;0.52;;;0.20;;
47519;SDS011;33252;48.122;11.538;2023-04-24T07:01:16;0.20;;;0.10;;
47519;SDS011;33252;48.122;11.538;2023-04-24T07:03:41;0.38;;;0.17;;
47519;SDS011;33252;48.122;11.538;2023-04-24T07:06:07;0.17;;;0.10;;
47519;SDS011;33252;48.122;11.538;2023-04-24T07:08:34;0.30;;;0.20;;
47519;SDS011;33252;48.122;11.538;2023-04-24T07:11:00;0.22;;;0.10;;
47519;SDS011;33252;48.122;11.538;2023-04-24T07:13:26;0.60;;;0.20;;
47519;SDS011;33252;48.122;11.538;2023-04-24T07:15:53;1.90;;;0.30;;
47519;SDS011;33252;48.122;11.538;2023-04-24T07:18:20;0.38;;;0.05;;
47519;SDS011;33252;48.122;11.538;2023-04-24T07:20:46;1.17;;;0.15;;
47519;SDS011;33252;48.122;11.538;2023-04-24T07:23:12;0.40;;;0.10;;
47519;SDS011;33252;48.122;11.538;2023-04-24T07:25:37;0.98;;;0.10;;
47519;SDS011;33252;48.122;11.538;2023-04-24T07:28:04;0.28;;;0.17;;
47519;SDS011;33252;48.122;11.538;2023-04-24T07:30:30;0.38;;;0.10;;
47519;SDS011;33252;48.122;11.538;2023-04-24T07:32:57;0.43;;;0.10;;
47519;SDS011;33252;48.122;11.538;2023-04-24T07:35:23;0.28;;;0.15;;
47519;SDS011;33252;48.122;11.538;2023-04-24T07:37:52;1.27;;;0.10;;
47519;SDS011;33252;48.122;11.538;2023-04-24T07:40:18;0.45;;;0.15;;
47519;SDS011;33252;48.122;11.538;2023-04-24T07:42:45;2.03;;;0.13;;
47519;SDS011;33252;48.122;11.538;2023-04-24T07:45:13;0.30;;;0.20;;
47519;SDS011;33252;48.122;11.538;2023-04-24T07:47:39;0.10;;;0.03;;
47519;SDS011;33252;48.122;11.538;2023-04-24T07:50:08;0.20;;;0.00;;
47519;SDS011;33252;48.122;11.538;2023-04-24T07:52:35;2.35;;;0.10;;
47519;SDS011;33252;48.122;11.538;2023-04-24T07:55:01;0.52;;;0.35;;
47519;SDS011;33252;48.122;11.538;2023-04-24T07:57:27;0.43;;;0.10;;
47519;SDS011;33252;48.122;11.538;2023-04-24T07:59:53;0.52;;;0.10;;
47519;SDS011;33252;48.122;11.538;2023-04-24T08:02:20;0.47;;;0.17;;
47519;SDS011;33252;48.122;11.538;2023-04-24T08:04:51;0.57;;;0.20;;
47519;SDS011;33252;48.122;11.538;2023-04-24T08:07:20;0.57;;;0.10;;
47519;SDS011;33252;48.122;11.538;2023-04-24T08:09:45;0.32;;;0.10;;
47519;SDS011;33252;48.122;11.538;2023-04-24T08:12:11;0.77;;;0.20;;
47519;SDS011;33252;48.122;11.538;2023-04-24T08:14:37;0.22;;;0.10;;
47519;SDS011;33252;48.122;11.538;2023-04-24T08:17:02;3.53;;;0.20;;
47519;SDS011;33252;48.122;11.538;2023-04-24T08:19:28;0.30;;;0.10;;
47519;SDS011;33252;48.122;11.538;2023-04-24T08:21:54;1.75;;;0.20;;
47519;SDS011;33252;48.122;11.538;2023-04-24T08:24:20;0.40;;;0.20;;
47519;SDS011;33252;48.122;11.538;2023-04-24T08:26:45;0.47;;;0.15;;
47519;SDS011;33252;48.122;11.538;2023-04-24T08:29:11;0.55;;;0.20;;
47519;SDS011;33252;48.122;11.538;2023-04-24T08:31:37;0.63;;;0.20;;
47519;SDS011;33252;48.122;11.538;2023-04-24T08:34:03;1.50;;;0.20;;
47519;SDS011;33252;48.122;11.538;2023-04-24T08:36:28;0.32;;;0.15;;
47519;SDS011;33252;48.122;11.538;2023-04-24T08:38:55;0.98;;;0.35;;
47519;SDS011;33252;48.122;11.538;2023-04-24T08:41:21;0.57;;;0.20;;
47519;SDS011;33252;48.122;11.538;2023-04-24T08:43:51;4.47;;;0.60;;
47519;SDS011;33252;48.122;11.538;2023-04-24T08:46:16;0.45;;;0.30;;
47519;SDS011;33252;48.122;11.538;2023-04-24T08:48:45;1.42;;;0.68;;
47519;SDS011;33252;48.122;11.538;2023-04-24T08:51:11;1.10;;;0.40;;
47519;SDS011;33252;48.122;11.538;2023-04-24T08:53:37;0.85;;;0.60;;
47519;SDS011;33252;48.122;11.538;2023-04-24T08:56:03;0.45;;;0.30;;
47519;SDS011;33252;48.122;11.538;2023-04-24T08:58:29;1.05;;;0.52;;
47519;SDS011;33252;48.122;11.538;2023-04-24T09:00:57;3.78;;;0.57;;
47519;SDS011;33252;48.122;11.538;2023-04-24T09:03:23;1.63;;;0.60;;
47519;SDS011;33252;48.122;11.538;2023-04-24T09:05:52;0.93;;;0.47;;
47519;SDS011;33252;48.122;11.538;2023-04-24T09:08:19;0.77;;;0.43;;
47519;SDS011;33252;48.122;11.538;2023-04-24T09:10:47;1.63;;;0.50;;
47519;SDS011;33252;48.122;11.538;2023-04-24T09:13:13;1.30;;;0.43;;
47519;SDS011;33252;48.122;11.538;2023-04-24T09:15:39;2.78;;;0.63;;
47519;SDS011;33252;48.122;11.538;2023-04-24T09:18:05;3.33;;;0.55;;
47519;SDS011;33252;48.122;11.538;2023-04-24T09:20:32;1.10;;;0.50;;
47519;SDS011;33252;48.122;11.538;2023-04-24T09:22:58;1.27;;;0.50;;
47519;SDS011;33252;48.122;11.538;2023-04-24T09:25:31;1.25;;;0.50;;
47519;SDS011;33252;48.122;11.538;2023-04-24T09:28:02;0.88;;;0.40;;
47519;SDS011;33252;48.122;11.538;2023-04-24T09:30:29;1.27;;;0.43;;
47519;SDS011;33252;48.122;11.538;2023-04-24T09:33:14;0.60;;;0.45;;
47519;SDS011;33252;48.122;11.538;2023-04-24T09:35:41;3.17;;;0.50;;
47519;SDS011;33252;48.122;11.538;2023-04-24T09:38:08;0.50;;;0.40;;
47519;SDS011;33252;48.122;11.538;2023-04-24T09:40:34;1.90;;;0.47;;
47519;SDS011;33252;48.122;11.538;2023-04-24T09:43:00;1.15;;;0.40;;
47519;SDS011;33252;48.122;11.538;2023-04-24T09:45:28;1.25;;;0.60;;
47519;SDS011;33252;48.122;11.538;2023-04-24T09:48:00;0.40;;;0.32;;
47519;SDS011;33252;48.122;11.538;2023-04-24T09:50:26;1.05;;;0.50;;
47519;SDS011;33252;48.122;11.538;2023-04-24T09:52:59;1.08;;;0.52;;
47519;SDS011;33252;48.122;11.538;2023-04-24T09:55:27;1.30;;;0.40;;
47519;SDS011;33252;48.122;11.538;2023-04-24T09:57:56;2.53;;;0.50;;
47519;SDS011;33252;48.122;11.538;2023-04-24T10:00:31;1.27;;;0.50;;
47519;SDS011;33252;48.122;11.538;2023-04-24T10:03:04;2.10;;;0.50;;
47519;SDS011;33252;48.122;11.538;2023-04-24T10:05:34;2.35;;;0.43;;
47519;SDS011;33252;48.122;11.538;2023-04-24T10:08:12;1.85;;;0.50;;
47519;SDS011;33252;48.122;11.538;2023-04-24T10:10:39;2.25;;;0.70;;
47519;SDS011;33252;48.122;11.538;2023-04-24T10:13:09;4.82;;;0.90;;
47519;SDS011;33252;48.122;11.538;2023-04-24T10:15:39;0.82;;;0.50;;
47519;SDS011;33252;48.122;11.538;2023-04-24T10:18:06;1.85;;;0.60;;
47519;SDS011;33252;48.122;11.538;2023-04-24T10:20:34;1.70;;;0.60;;
47519;SDS011;33252;48.122;11.538;2023-04-24T10:23:01;2.03;;;0.43;;
47519;SDS011;33252;48.122;11.538;2023-04-24T10:25:31;2.03;;;0.93;;
47519;SDS011;33252;48.122;11.538;2023-04-24T10:27:59;2.40;;;0.95;;
47519;SDS011;33252;48.122;11.538;2023-04-24T10:30:26;1.45;;;0.50;;
47519;SDS011;33252;48.122;11.538;2023-04-24T10:32:54;1.40;;;0.70;;
47519;SDS011;33252;48.122;11.538;2023-04-24T10:35:19;1.17;;;0.80;;
47519;SDS011;33252;48.122;11.538;2023-04-24T10:38:06;2.10;;;0.73;;
47519;SDS011;33252;48.122;11.538;2023-04-24T10:40:35;1.02;;;0.70;;
47519;SDS011;33252;48.122;11.538;2023-04-24T10:43:02;1.88;;;0.70;;
47519;SDS011;33252;48.122;11.538;2023-04-24T10:45:31;1.85;;;0.80;;
47519;SDS011;33252;48.122;11.538;2023-04-24T10:47:58;3.15;;;0.82;;
47519;SDS011;33252;48.122;11.538;2023-04-24T10:50:29;1.00;;;0.60;;
47519;SDS011;33252;48.122;11.538;2023-04-24T10:53:27;0.75;;;0.32;;
47519;SDS011;33252;48.122;11.538;2023-04-24T10:56:12;0.80;;;0.40;;
47519;SDS011;33252;48.122;11.538;2023-04-24T10:58:42;1.10;;;0.38;;
47519;SDS011;33252;48.122;11.538;2023-04-24T11:01:23;0.50;;;0.28;;
47519;SDS011;33252;48.122;11.538;2023-04-24T11:03:54;0.73;;;0.40;;
47519;SDS011;33252;48.122;11.538;2023-04-24T11:06:34;1.27;;;0.50;;
47519;SDS011;33252;48.122;11.538;2023-04-24T11:09:08;0.95;;;0.20;;
47519;SDS011;33252;48.122;11.538;2023-04-24T11:11:37;0.45;;;0.20;;
47519;SDS011;33252;48.122;11.538;2023-04-24T11:14:09;0.90;;;0.25;;
47519;SDS011;33252;48.122;11.538;2023-04-24T11:16:37;0.57;;;0.20;;
47519;SDS011;33252;48.122;11.538;2023-04-24T11:21:42;1.25;;;0.30;;
47519;SDS011;33252;48.122;11.538;2023-04-24T11:34:48;1.63;;;0.50;;
47519;SDS011;33252;48.122;11.538;2023-04-24T11:37:15;1.63;;;0.85;;
47519;SDS011;33252;48.122;11.538;2023-04-24T11:39:41;1.52;;;0.82;;
47519;SDS011;33252;48.122;11.538;2023-04-24T11:42:06;1.10;;;0.52;;
47519;SDS011;33252;48.122;11.538;2023-04-24T11:44:34;1.23;;;0.73;;
47519;SDS011;33252;48.122;11.538;2023-04-24T11:47:02;0.93;;;0.60;;
47519;SDS011;33252;48.122;11.538;2023-04-24T11:49:29;1.10;;;0.60;;
47519;SDS011;33252;48.122;11.538;2023-04-24T11:51:55;1.23;;;0.70;;
47519;SDS011;33252;48.122;11.538;2023-04-24T11:54:21;1.73;;;0.75;;
47519;SDS011;33252;48.122;11.538;2023-04-24T11:56:47;1.80;;;0.80;;
47519;SDS011;33252;48.122;11.538;2023-04-24T11:59:14;1.83;;;0.45;;
47519;SDS011;33252;48.122;11.538;2023-04-24T12:01:46;2.65;;;0.50;;
47519;SDS011;33252;48.122;11.538;2023-04-24T12:04:12;1.93;;;0.50;;
47519;SDS011;33252;48.122;11.538;2023-04-24T12:06:39;2.45;;;0.98;;
47519;SDS011;33252;48.122;11.538;2023-04-24T12:09:04;1.40;;;0.50;;
47519;SDS011;33252;48.122;11.538;2023-04-24T12:11:31;1.10;;;0.55;;
47519;SDS011;33252;48.122;11.538;2023-04-24T12:13:57;2.05;;;0.50;;
47519;SDS011;33252;48.122;11.538;2023-04-24T12:16:22;1.67;;;0.47;;
47519;SDS011;33252;48.122;11.538;2023-04-24T12:18:51;0.85;;;0.70;;
47519;SDS011;33252;48.122;11.538;2023-04-24T12:21:21;1.33;;;0.50;;
47519;SDS011;33252;48.122;11.538;2023-04-24T12:23:48;1.65;;;0.68;;
47519;SDS011;33252;48.122;11.538;2023-04-24T12:26:17;1.88;;;0.47;;
47519;SDS011;33252;48.122;11.538;2023-04-24T12:28:45;2.35;;;0.63;;
47519;SDS011;33252;48.122;11.538;2023-04-24T12:31:13;1.30;;;0.55;;
47519;SDS011;33252;48.122;11.538;2023-04-24T12:33:38;1.33;;;0.57;;
47519;SDS011;33252;48.122;11.538;2023-04-24T12:36:04;1.92;;;0.43;;
47519;SDS011;33252;48.122;11.538;2023-04-24T12:38:31;3.10;;;0.57;;
47519;SDS011;33252;48.122;11.538;2023-04-24T12:41:12;1.42;;;0.40;;
47519;SDS011;33252;48.122;11.538;2023-04-24T12:43:38;1.92;;;0.60;;
47519;SDS011;33252;48.122;11.538;2023-04-24T12:46:16;1.85;;;0.88;;
47519;SDS011;33252;48.122;11.538;2023-04-24T12:48:42;1.10;;;0.52;;
47519;SDS011;33252;48.122;11.538;2023-04-24T12:51:07;0.75;;;0.32;;
47519;SDS011;33252;48.122;11.538;2023-04-24T12:53:33;1.10;;;0.70;;
47519;SDS011;33252;48.122;11.538;2023-04-24T12:55:58;1.40;;;0.50;;
47519;SDS011;33252;48.122;11.538;2023-04-24T12:58:24;1.00;;;0.60;;
47519;SDS011;33252;48.122;11.538;2023-04-24T13:00:50;2.25;;;0.63;;
47519;SDS011;33252;48.122;11.538;2023-04-24T13:03:16;0.88;;;0.57;;
47519;SDS011;33252;48.122;11.538;2023-04-24T13:05:42;1.38;;;0.70;;
47519;SDS011;33252;48.122;11.538;2023-04-24T13:08:08;0.82;;;0.60;;
47519;SDS011;33252;48.122;11.538;2023-04-24T13:10:34;1.73;;;0.80;;
47519;SDS011;33252;48.122;11.538;2023-04-24T13:13:00;1.00;;;0.70;;
47519;SDS011;33252;48.122;11.538;2023-04-24T13:15:26;1.20;;;0.80;;
47519;SDS011;33252;48.122;11.538;2023-04-24T13:17:52;0.85;;;0.57;;
47519;SDS011;33252;48.122;11.538;2023-04-24T13:20:17;0.75;;;0.57;;
47519;SDS011;33252;48.122;11.538;2023-04-24T13:22:43;2.45;;;1.10;;
47519;SDS011;33252;48.122;11.538;2023-04-24T13:25:09;1.30;;;0.70;;
47519;SDS011;33252;48.122;11.538;2023-04-24T13:27:35;1.63;;;1.13;;
47519;SDS011;33252;48.122;11.538;2023-04-24T13:30:03;2.17;;;0.73;;
47519;SDS011;33252;48.122;11.538;2023-04-24T13:32:28;1.52;;;1.08;;
47519;SDS011;33252;48.122;11.538;2023-04-24T13:34:54;1.60;;;0.80;;
47519;SDS011;33252;48.122;11.538;2023-04-24T13:37:21;1.65;;;0.90;;
47519;SDS011;33252;48.122;11.538;2023-04-24T13:39:47;0.95;;;0.55;;
47519;SDS011;33252;48.122;11.538;2023-04-24T13:42:13;1.88;;;0.80;;
47519;SDS011;33252;48.122;11.538;2023-04-24T13:44:39;2.03;;;1.13;;
47519;SDS011;33252;48.122;11.538;2023-04-24T13:47:05;1.60;;;0.85;;
47519;SDS011;33252;48.122;11.538;2023-04-24T13:49:31;1.92;;;0.63;;
47519;SDS011;33252;48.122;11.538;2023-04-24T13:51:56;1.40;;;0.70;;
47519;SDS011;33252;48.122;11.538;2023-04-24T13:54:22;1.20;;;0.93;;
47519;SDS011;33252;48.122;11.538;2023-04-24T13:56:50;1.77;;;0.52;;
47519;SDS011;33252;48.122;11.538;2023-04-24T13:59:16;1.83;;;0.80;;
47519;SDS011;33252;48.122;11.538;2023-04-24T14:01:42;2.20;;;0.75;;
47519;SDS011;33252;48.122;11.538;2023-04-24T14:04:09;1.50;;;0.60;;
47519;SDS011;33252;48.122;11.538;2023-04-24T14:06:36;2.33;;;0.73;;
47519;SDS011;33252;48.122;11.538;2023-04-24T14:09:01;1.20;;;0.75;;
47519;SDS011;33252;48.122;11.538;2023-04-24T14:11:27;4.30;;;0.90;;
47519;SDS011;33252;48.122;11.538;2023-04-24T14:13:54;2.92;;;0.88;;
47519;SDS011;33252;48.122;11.538;2023-04-24T14:16:21;0.90;;;0.63;;
47519;SDS011;33252;48.122;11.538;2023-04-24T14:18:47;1.33;;;0.63;;
47519;SDS011;33252;48.122;11.538;2023-04-24T14:21:13;2.10;;;0.80;;
47519;SDS011;33252;48.122;11.538;2023-04-24T14:23:38;1.15;;;0.77;;
47519;SDS011;33252;48.122;11.538;2023-04-24T14:26:04;1.60;;;0.60;;
47519;SDS011;33252;48.122;11.538;2023-04-24T14:28:30;1.20;;;0.55;;
47519;SDS011;33252;48.122;11.538;2023-04-24T14:30:55;1.63;;;0.60;;
47519;SDS011;33252;48.122;11.538;2023-04-24T14:33:21;1.85;;;0.50;;
47519;SDS011;33252;48.122;11.538;2023-04-24T14:35:47;1.63;;;0.90;;
47519;SDS011;33252;48.122;11.538;2023-04-24T14:38:12;4.47;;;1.23;;
47519;SDS011;33252;48.122;11.538;2023-04-24T14:40:38;3.38;;;1.15;;
47519;SDS011;33252;48.122;11.538;2023-04-24T14:43:04;1.80;;;0.73;;
47519;SDS011;33252;48.122;11.538;2023-04-24T14:45:30;2.75;;;0.80;;